Time;durP1;ratioP1;P1;durP2;ratioP2;P2;SDS_P1;SDS_P2;PMS_P1;PMS_P2;Temp;Humidity;BMP_temperature;BMP_pressure;BME280_temperature;BME280_humidity;BME280_pressure;Samples;Min_cycle;Max_cycle;Signal;HPM_P1;HPM_P2
2023/09/09 00:02:14;;;;;;;1.20;0.60;;;;;;;19.11;59.10;100317.59;5326260;26;32966;-79
2023/09/09 00:04:42;;;;;;;1.02;0.88;;;;;;;19.08;59.00;100313.28;5344863;26;34110;-79
2023/09/09 00:07:11;;;;;;;0.57;0.57;;;;;;;19.10;58.88;100306.03;5363233;26;33191;-79
2023/09/09 00:09:41;;;;;;;0.30;0.30;;;;;;;19.10;58.73;100314.06;5345320;26;33542;-80
2023/09/09 00:12:09;;;;;;;0.40;0.40;;;;;;;19.04;58.88;100311.81;5344688;26;34634;-80
2023/09/09 00:14:37;;;;;;;0.98;0.82;;;;;;;19.10;58.64;100307.84;5345433;26;34770;-80
2023/09/09 00:17:04;;;;;;;1.30;1.20;;;;;;;18.88;59.39;100306.69;5325433;26;32576;-80
2023/09/09 00:19:34;;;;;;;0.52;0.37;;;;;;;18.90;59.36;100310.12;5344281;26;34443;-80
2023/09/09 00:22:01;;;;;;;0.90;0.73;;;;;;;18.84;59.60;100304.31;5343190;26;33758;-79
2023/09/09 00:24:29;;;;;;;0.70;0.45;;;;;;;19.17;58.54;100312.63;5325891;26;32571;-80
2023/09/09 00:26:59;;;;;;;13.25;1.23;;;;;;;18.85;59.52;100306.91;5345117;26;32372;-80
2023/09/09 00:29:27;;;;;;;1.85;0.30;;;;;;;18.90;59.04;100309.25;5363120;26;33953;-80
2023/09/09 00:31:55;;;;;;;0.62;0.57;;;;;;;18.78;59.71;100312.78;5326294;26;33056;-80
2023/09/09 00:34:23;;;;;;;0.22;0.22;;;;;;;18.78;59.58;100310.09;5343406;26;33821;-79
2023/09/09 00:36:50;;;;;;;2.28;1.08;;;;;;;18.64;60.08;100309.22;5344391;26;33497;-79
2023/09/09 00:39:18;;;;;;;1.65;0.57;;;;;;;18.48;60.76;100308.56;5363024;26;33056;-80
2023/09/09 00:41:46;;;;;;;0.45;0.45;;;;;;;18.64;60.17;100313.69;5344477;26;32689;-80
2023/09/09 00:44:13;;;;;;;1.55;0.68;;;;;;;18.81;59.45;100310.75;5343532;26;32731;-80
2023/09/09 00:46:41;;;;;;;0.95;0.80;;;;;;;18.92;59.25;100302.81;5363213;26;33863;-80
2023/09/09 00:49:09;;;;;;;0.65;0.55;;;;;;;18.79;59.65;100304.63;5344776;26;34474;-79
2023/09/09 00:51:37;;;;;;;1.05;0.82;;;;;;;18.61;60.17;100308.56;5344493;26;32972;-80
2023/09/09 00:54:05;;;;;;;1.33;0.82;;;;;;;18.54;60.36;100308.13;5344510;26;32933;-80
2023/09/09 00:56:34;;;;;;;2.60;0.80;;;;;;;18.51;60.58;100304.81;5344221;26;32625;-80
2023/09/09 00:59:01;;;;;;;1.37;1.27;;;;;;;18.51;60.45;100311.00;5344476;26;32940;-80
2023/09/09 01:01:31;;;;;;;0.25;0.25;;;;;;;18.42;60.82;100312.50;5363059;26;34162;-80
2023/09/09 01:04:00;;;;;;;1.83;0.55;;;;;;;18.41;61.06;100310.78;5345219;26;34235;-79
2023/09/09 01:06:28;;;;;;;1.02;0.85;;;;;;;18.39;61.02;100309.19;5344353;26;32553;-80
2023/09/09 01:08:55;;;;;;;2.15;1.23;;;;;;;18.75;59.74;100311.16;5361543;26;34259;-79
2023/09/09 01:11:23;;;;;;;0.65;0.40;;;;;;;18.45;60.82;100313.25;5362619;26;34727;-78
2023/09/09 01:13:51;;;;;;;0.65;0.65;;;;;;;18.47;60.38;100306.84;5325274;26;33675;-79
2023/09/09 01:16:19;;;;;;;0.35;0.32;;;;;;;18.47;60.52;100306.84;5343858;26;32320;-78
2023/09/09 01:18:47;;;;;;;2.05;0.73;;;;;;;18.42;60.52;100299.16;5325858;26;32824;-79
2023/09/09 01:21:16;;;;;;;0.70;0.70;;;;;;;18.61;59.98;100304.09;5343254;26;34759;-79
2023/09/09 01:23:44;;;;;;;3.22;0.93;;;;;;;18.54;60.01;100300.12;5340951;26;33617;-78
2023/09/09 01:26:12;;;;;;;1.65;0.80;;;;;;;18.52;60.17;100304.72;5360416;26;33372;-79
2023/09/09 01:28:39;;;;;;;0.37;0.37;;;;;;;18.50;60.22;100303.94;5325204;26;34255;-79
2023/09/09 01:31:08;;;;;;;4.12;0.65;;;;;;;18.40;60.78;100300.19;5343596;26;33822;-79
2023/09/09 01:33:36;;;;;;;2.42;0.70;;;;;;;18.39;60.57;100303.84;5343877;26;34129;-79
2023/09/09 01:36:04;;;;;;;1.17;1.10;;;;;;;18.28;61.21;100307.25;5343406;26;33289;-78
2023/09/09 01:38:34;;;;;;;1.10;0.98;;;;;;;18.27;61.34;100304.66;5361819;26;33616;-78
2023/09/09 01:41:03;;;;;;;0.80;0.60;;;;;;;18.30;61.08;100309.81;5343344;26;34276;-78
2023/09/09 01:43:31;;;;;;;5.55;0.68;;;;;;;18.36;60.58;100304.03;5364112;26;33505;-78
2023/09/09 01:45:59;;;;;;;1.20;0.98;;;;;;;18.29;61.31;100300.09;5325877;26;33082;-79
2023/09/09 01:48:27;;;;;;;0.80;0.80;;;;;;;18.19;61.29;100299.00;5308726;26;33690;-78
2023/09/09 01:50:54;;;;;;;1.33;0.43;;;;;;;18.27;61.23;100299.31;5364736;26;34920;-79
2023/09/09 01:53:22;;;;;;;0.50;0.47;;;;;;;18.42;60.33;100298.28;5344532;26;33724;-78
2023/09/09 01:55:49;;;;;;;1.17;0.80;;;;;;;18.22;61.14;100306.78;5307120;26;32536;-78
2023/09/09 01:58:17;;;;;;;0.13;0.13;;;;;;;18.22;61.28;100299.62;5326107;26;33963;-79
2023/09/09 02:00:44;;;;;;;1.65;1.00;;;;;;;18.28;61.06;100301.06;5326712;26;33779;-79
2023/09/09 02:03:12;;;;;;;0.22;0.17;;;;;;;18.26;61.12;100298.47;5344844;26;34209;-81
2023/09/09 02:05:40;;;;;;;0.37;0.37;;;;;;;18.32;60.75;100305.19;5326560;26;33245;-80
2023/09/09 02:08:08;;;;;;;2.95;0.90;;;;;;;18.31;60.68;100300.81;5344919;26;34748;-80
2023/09/09 02:10:35;;;;;;;2.00;0.82;;;;;;;18.53;59.89;100297.56;5345201;26;33926;-80
2023/09/09 02:13:04;;;;;;;1.27;0.95;;;;;;;18.23;60.62;100303.16;5326831;26;33614;-80
2023/09/09 02:15:31;;;;;;;0.80;0.80;;;;;;;18.22;61.01;100296.94;5308562;26;32017;-80
2023/09/09 02:17:59;;;;;;;0.95;0.95;;;;;;;18.19;61.09;100296.31;5364519;26;34607;-80
2023/09/09 02:20:28;;;;;;;0.60;0.60;;;;;;;18.13;61.36;100289.56;5326884;26;35464;-80
2023/09/09 02:22:55;;;;;;;2.15;1.20;;;;;;;18.22;61.13;100294.28;5326678;26;32877;-80
2023/09/09 02:25:23;;;;;;;0.55;0.55;;;;;;;18.11;61.44;100299.50;5344475;26;33623;-79
2023/09/09 02:27:50;;;;;;;2.33;0.70;;;;;;;18.09;61.34;100302.28;5365301;26;33558;-79
2023/09/09 02:30:18;;;;;;;0.35;0.35;;;;;;;18.00;61.48;100296.69;5326612;26;32433;-79
2023/09/09 02:32:46;;;;;;;0.52;0.52;;;;;;;17.94;61.88;100291.75;5345311;26;33611;-80
2023/09/09 02:35:14;;;;;;;0.43;0.43;;;;;;;18.08;61.38;100295.19;5326729;26;33066;-80
2023/09/09 02:37:42;;;;;;;0.95;0.77;;;;;;;17.99;61.56;100295.81;5326666;26;32936;-80
2023/09/09 02:40:10;;;;;;;0.60;0.60;;;;;;;17.92;62.08;100294.53;5326188;26;34039;-79
2023/09/09 02:42:38;;;;;;;1.62;1.05;;;;;;;18.16;60.90;100295.56;5346197;26;33227;-79
2023/09/09 02:45:06;;;;;;;0.77;0.65;;;;;;;18.07;61.25;100292.66;5364683;26;33555;-79
2023/09/09 02:47:34;;;;;;;0.60;0.30;;;;;;;18.05;61.28;100292.75;5364989;26;33879;-79
2023/09/09 02:50:03;;;;;;;0.68;0.68;;;;;;;17.94;61.56;100287.25;5364193;26;34503;-79
2023/09/09 02:52:31;;;;;;;0.68;0.55;;;;;;;18.00;61.50;100286.00;5365179;26;33647;-79
2023/09/09 02:54:59;;;;;;;0.57;0.57;;;;;;;18.04;61.48;100291.06;5367879;26;34266;-79
2023/09/09 02:57:27;;;;;;;1.08;0.60;;;;;;;18.02;61.42;100292.94;5386697;26;33582;-79
2023/09/09 02:59:55;;;;;;;0.90;0.90;;;;;;;18.03;61.41;100294.66;5347906;26;32985;-79
2023/09/09 03:02:22;;;;;;;0.57;0.57;;;;;;;17.99;61.30;100298.50;5348471;26;32602;-79
2023/09/09 03:04:50;;;;;;;0.15;0.10;;;;;;;17.90;61.73;100291.97;5367527;26;33871;-80
2023/09/09 03:07:19;;;;;;;0.22;0.22;;;;;;;17.87;61.83;100288.63;5367755;26;34050;-81
2023/09/09 03:09:47;;;;;;;3.92;1.25;;;;;;;18.04;60.80;100275.00;5349410;26;33946;-81
2023/09/09 03:12:20;;;;;;;1.25;0.68;;;;;;;18.07;60.54;100282.81;5349249;26;33619;-79
2023/09/09 03:14:48;;;;;;;1.80;0.85;;;;;;;17.98;61.22;100280.75;5368555;26;33076;-80
2023/09/09 03:17:18;;;;;;;2.05;0.65;;;;;;;18.06;61.01;100275.75;5367105;26;33805;-80
2023/09/09 03:19:46;;;;;;;0.20;0.20;;;;;;;17.97;61.31;100280.87;5348704;26;33347;-79
2023/09/09 03:22:13;;;;;;;0.62;0.40;;;;;;;17.90;61.51;100277.75;5348897;26;33583;-80
2023/09/09 03:24:41;;;;;;;0.50;0.50;;;;;;;17.91;61.35;100274.13;5348740;26;32453;-80
2023/09/09 03:27:08;;;;;;;1.00;0.90;;;;;;;17.94;61.00;100271.22;5387346;26;33479;-79
2023/09/09 03:29:36;;;;;;;2.87;0.68;;;;;;;17.80;61.55;100274.84;5367693;26;33403;-79
2023/09/09 03:32:04;;;;;;;1.87;1.00;;;;;;;17.51;62.94;100276.69;5366825;26;34189;-79
2023/09/09 03:34:32;;;;;;;1.08;0.82;;;;;;;17.40;63.40;100273.88;5367924;26;33615;-79
2023/09/09 03:37:00;;;;;;;5.00;0.90;;;;;;;17.48;63.21;100268.03;5366954;26;34276;-79
2023/09/09 03:39:28;;;;;;;0.60;0.60;;;;;;;17.39;63.72;100270.34;5349043;26;32731;-79
2023/09/09 03:41:56;;;;;;;2.20;0.93;;;;;;;17.53;62.80;100269.44;5347901;26;34469;-79
2023/09/09 03:44:24;;;;;;;0.40;0.40;;;;;;;17.49;63.33;100273.28;5367245;26;33299;-79
2023/09/09 03:46:52;;;;;;;1.33;0.95;;;;;;;17.53;63.17;100272.13;5365780;26;33251;-79
2023/09/09 03:49:20;;;;;;;0.70;0.65;;;;;;;17.53;62.98;100265.94;5330055;26;32994;-80
2023/09/09 03:51:47;;;;;;;1.70;0.90;;;;;;;17.48;63.25;100274.22;5367313;26;33527;-79
2023/09/09 03:54:15;;;;;;;5.55;1.55;;;;;;;17.38;63.62;100278.47;5348430;26;33401;-79
2023/09/09 03:56:42;;;;;;;0.93;0.93;;;;;;;17.55;62.95;100274.69;5329734;26;32760;-78
2023/09/09 03:59:11;;;;;;;1.12;0.88;;;;;;;17.52;62.92;100275.75;5347014;26;33198;-78
2023/09/09 04:01:39;;;;;;;1.05;0.98;;;;;;;17.54;62.80;100279.16;5348775;26;33881;-79
2023/09/09 04:04:07;;;;;;;2.65;2.40;;;;;;;17.55;62.77;100272.88;5367280;26;33108;-79
2023/09/09 04:06:35;;;;;;;0.70;0.32;;;;;;;17.47;63.10;100283.22;5367445;26;33930;-79
2023/09/09 04:09:03;;;;;;;1.45;0.80;;;;;;;17.64;62.50;100279.41;5347626;26;33378;-78
2023/09/09 04:11:31;;;;;;;0.40;0.40;;;;;;;17.56;62.70;100285.25;5387182;26;33878;-79
2023/09/09 04:13:59;;;;;;;3.12;0.47;;;;;;;17.54;62.91;100281.84;5347386;26;32469;-79
2023/09/09 04:16:27;;;;;;;2.80;0.88;;;;;;;17.55;62.97;100280.87;5367007;26;33620;-79
2023/09/09 04:18:55;;;;;;;0.95;0.37;;;;;;;17.50;63.00;100288.31;5366360;26;33551;-79
2023/09/09 04:21:22;;;;;;;2.05;1.15;;;;;;;17.65;62.37;100284.66;5366791;26;34037;-79
2023/09/09 04:23:50;;;;;;;0.30;0.20;;;;;;;17.60;62.42;100286.78;5367254;26;32953;-78
2023/09/09 04:26:18;;;;;;;0.40;0.40;;;;;;;17.69;62.26;100290.66;5348333;26;34530;-78
2023/09/09 04:28:45;;;;;;;0.55;0.55;;;;;;;17.63;62.69;100283.91;5347919;26;34672;-78
2023/09/09 04:31:13;;;;;;;2.62;0.62;;;;;;;17.54;62.95;100289.84;5366850;26;34020;-78
2023/09/09 04:33:41;;;;;;;0.25;0.25;;;;;;;17.60;62.71;100288.59;5348093;26;32715;-78
2023/09/09 04:36:09;;;;;;;0.50;0.30;;;;;;;17.61;62.71;100288.50;5348160;26;33894;-81
2023/09/09 04:38:37;;;;;;;0.75;0.62;;;;;;;17.66;62.51;100285.53;5348221;26;33896;-80
2023/09/09 04:41:08;;;;;;;2.90;0.50;;;;;;;17.70;62.41;100289.69;5326365;26;33974;-81
2023/09/09 04:43:36;;;;;;;0.57;0.30;;;;;;;17.60;62.80;100297.44;5344942;26;33841;-80
2023/09/09 04:46:04;;;;;;;1.12;0.80;;;;;;;17.58;63.17;100291.37;5345184;26;33683;-80
2023/09/09 04:48:32;;;;;;;0.65;0.65;;;;;;;17.66;62.85;100299.75;5308001;26;33261;-81
2023/09/09 04:51:00;;;;;;;1.05;0.93;;;;;;;17.71;62.88;100290.56;5326247;26;33501;-80
2023/09/09 04:53:27;;;;;;;0.68;0.68;;;;;;;17.64;62.95;100296.28;5325974;26;32656;-81
2023/09/09 04:55:56;;;;;;;0.68;0.68;;;;;;;17.79;62.60;100296.28;5326535;26;32845;-80
2023/09/09 04:58:25;;;;;;;0.40;0.40;;;;;;;17.80;62.88;100303.34;5326572;26;33536;-81
2023/09/09 05:00:52;;;;;;;0.55;0.50;;;;;;;17.89;62.89;100303.59;5304695;26;32792;-80
2023/09/09 05:03:21;;;;;;;2.47;2.28;;;;;;;17.95;62.91;100299.69;5305159;26;32179;-80
2023/09/09 05:05:49;;;;;;;0.60;0.60;;;;;;;18.07;62.55;100304.19;5341710;26;32933;-80
2023/09/09 05:08:16;;;;;;;1.35;1.20;;;;;;;18.07;62.81;100304.19;5342354;26;33589;-79
2023/09/09 05:10:44;;;;;;;0.43;0.43;;;;;;;18.46;61.72;100301.59;5323287;26;34949;-80
2023/09/09 05:13:12;;;;;;;0.20;0.20;;;;;;;18.52;61.64;100298.53;5323695;26;33599;-79
2023/09/09 05:15:39;;;;;;;0.60;0.57;;;;;;;18.37;62.61;100311.09;5304127;26;33035;-79
2023/09/09 05:18:07;;;;;;;0.68;0.68;;;;;;;18.43;62.71;100302.69;5323626;26;34480;-80
2023/09/09 05:20:35;;;;;;;0.68;0.37;;;;;;;18.49;62.66;100307.59;5324012;26;33606;-80
2023/09/09 05:23:02;;;;;;;3.30;1.37;;;;;;;18.80;61.84;100301.03;5305383;26;32592;-80
2023/09/09 05:25:30;;;;;;;5.18;1.77;;;;;;;18.84;61.95;100309.66;5342837;26;33384;-79
2023/09/09 05:27:58;;;;;;;1.00;1.00;;;;;;;18.78;62.51;100310.97;5342239;26;34573;-79
2023/09/09 05:30:26;;;;;;;1.58;0.90;;;;;;;18.99;62.20;100308.63;5322784;26;33697;-79
2023/09/09 05:32:53;;;;;;;0.60;0.60;;;;;;;19.26;61.75;100310.28;5362502;26;32944;-79
2023/09/09 05:35:21;;;;;;;1.02;1.00;;;;;;;19.36;61.54;100316.69;5342467;26;34003;-79
2023/09/09 05:37:49;;;;;;;2.50;0.85;;;;;;;19.41;61.77;100311.84;5305415;26;33904;-79
2023/09/09 05:40:17;;;;;;;0.82;0.80;;;;;;;19.41;62.23;100310.03;5362660;26;33785;-79
2023/09/09 05:42:44;;;;;;;0.70;0.70;;;;;;;19.56;61.98;100312.56;5322743;26;32291;-79
2023/09/09 05:45:12;;;;;;;1.45;0.32;;;;;;;19.74;61.82;100313.91;5342475;26;33696;-79
2023/09/09 05:47:42;;;;;;;0.50;0.50;;;;;;;19.60;62.52;100314.06;5361648;26;33761;-79
2023/09/09 05:50:10;;;;;;;0.75;0.75;;;;;;;19.77;62.29;100305.66;5343049;26;33212;-80
2023/09/09 05:52:38;;;;;;;6.65;2.42;;;;;;;19.73;62.44;100306.84;5342542;26;32946;-79
2023/09/09 05:55:08;;;;;;;0.55;0.50;;;;;;;20.15;61.45;100300.12;5361258;26;34420;-79
2023/09/09 05:57:36;;;;;;;0.45;0.45;;;;;;;20.08;61.60;100314.97;5361486;26;34673;-79
2023/09/09 06:00:04;;;;;;;5.37;0.90;;;;;;;20.37;61.05;100304.72;5341725;26;33273;-79
2023/09/09 06:02:39;;;;;;;2.62;0.75;;;;;;;20.36;61.15;100312.84;5343170;26;32641;-79
2023/09/09 06:05:10;;;;;;;1.98;1.65;;;;;;;20.47;61.02;100310.25;5354716;26;34776;-79
2023/09/09 06:07:38;;;;;;;2.37;1.08;;;;;;;20.56;61.00;100309.56;5316827;26;32851;-80
2023/09/09 06:10:12;;;;;;;1.65;0.80;;;;;;;20.91;60.74;100308.63;5343189;26;33221;-79
2023/09/09 06:12:40;;;;;;;0.50;0.50;;;;;;;20.96;61.00;100311.81;5323583;26;32406;-80
2023/09/09 06:15:11;;;;;;;0.62;0.62;;;;;;;20.96;60.75;100311.81;5340245;26;34848;-80
2023/09/09 06:17:41;;;;;;;2.83;0.77;;;;;;;21.25;59.49;100312.16;5340969;26;33327;-80
2023/09/09 06:20:10;;;;;;;0.60;0.60;;;;;;;21.57;57.62;100312.28;5343443;26;32586;-80
2023/09/09 06:22:39;;;;;;;0.73;0.73;;;;;;;21.65;57.70;100309.00;5343397;26;32350;-80
2023/09/09 06:25:08;;;;;;;1.00;0.93;;;;;;;21.52;56.74;100308.28;5343022;26;34072;-80
2023/09/09 06:27:36;;;;;;;0.82;0.68;;;;;;;21.47;55.76;100317.56;5361731;26;32843;-81
2023/09/09 06:30:04;;;;;;;0.75;0.75;;;;;;;21.70;55.19;100315.69;5361131;26;34236;-80
2023/09/09 06:32:32;;;;;;;14.75;0.98;;;;;;;21.69;54.68;100318.47;5323898;26;33260;-81
2023/09/09 06:35:00;;;;;;;2.10;1.25;;;;;;;21.97;54.34;100309.00;5342847;26;33375;-80
2023/09/09 06:37:28;;;;;;;0.20;0.20;;;;;;;22.50;53.48;100317.09;5324302;26;33020;-80
2023/09/09 06:39:56;;;;;;;0.43;0.32;;;;;;;22.59;53.60;100315.47;5324709;26;32736;-81
2023/09/09 06:42:24;;;;;;;1.05;0.88;;;;;;;23.09;53.30;100313.81;5342325;26;34051;-81
2023/09/09 06:44:52;;;;;;;6.50;0.98;;;;;;;23.41;51.87;100313.66;5342860;26;34215;-82
2023/09/09 06:47:20;;;;;;;1.52;1.25;;;;;;;23.44;52.26;100310.69;5324076;26;34328;-80
2023/09/09 06:49:48;;;;;;;3.37;1.37;;;;;;;23.46;52.27;100311.41;5324001;26;33005;-80
2023/09/09 06:52:18;;;;;;;1.15;0.98;;;;;;;23.64;50.18;100317.03;5304576;26;32837;-80
2023/09/09 06:54:46;;;;;;;0.60;0.60;;;;;;;23.79;49.30;100316.62;5323360;26;32980;-80
2023/09/09 06:57:13;;;;;;;0.65;0.47;;;;;;;23.89;49.42;100328.28;5323913;26;33570;-80
2023/09/09 06:59:42;;;;;;;4.70;0.85;;;;;;;24.32;48.74;100321.63;5324130;26;33457;-80
2023/09/09 07:02:09;;;;;;;1.00;0.95;;;;;;;24.24;48.49;100327.72;5323961;26;32417;-80
2023/09/09 07:04:38;;;;;;;1.27;1.17;;;;;;;24.55;47.17;100325.78;5361767;26;32907;-80
2023/09/09 07:07:06;;;;;;;1.27;0.95;;;;;;;24.65;47.20;100332.00;5322629;26;34710;-80
2023/09/09 07:09:41;;;;;;;1.02;0.65;;;;;;;24.73;47.70;100334.81;5324456;26;32938;-80
2023/09/09 07:12:10;;;;;;;1.87;1.73;;;;;;;24.96;46.38;100334.47;5323270;26;32616;-80
2023/09/09 07:14:38;;;;;;;2.72;1.17;;;;;;;24.88;46.81;100328.97;5305203;26;32956;-80
2023/09/09 07:17:09;;;;;;;0.52;0.52;;;;;;;25.26;45.15;100336.13;5307204;26;32996;-81
2023/09/09 07:19:40;;;;;;;1.33;1.25;;;;;;;25.12;43.95;100328.50;5324748;26;32853;-80
2023/09/09 07:22:09;;;;;;;0.95;0.57;;;;;;;25.31;43.70;100328.44;5342441;26;34196;-80
2023/09/09 07:24:39;;;;;;;0.62;0.62;;;;;;;25.09;43.92;100334.19;5324500;26;34060;-80
2023/09/09 07:27:06;;;;;;;1.15;0.90;;;;;;;25.18;43.77;100323.34;5305155;26;34110;-80
2023/09/09 07:29:34;;;;;;;2.10;1.75;;;;;;;25.66;43.27;100333.06;5322393;26;33610;-84
2023/09/09 07:32:04;;;;;;;0.65;0.65;;;;;;;25.65;42.64;100330.53;5324553;26;33439;-80
2023/09/09 07:34:33;;;;;;;2.22;1.30;;;;;;;25.73;42.90;100336.88;5342272;26;34650;-81
2023/09/09 07:37:03;;;;;;;1.10;1.10;;;;;;;25.56;43.16;100329.56;5325005;26;33045;-80
2023/09/09 07:39:30;;;;;;;0.85;0.73;;;;;;;25.59;42.81;100334.69;5342503;26;33798;-81
2023/09/09 07:41:58;;;;;;;0.45;0.32;;;;;;;26.07;42.11;100338.13;5323356;26;33445;-81
2023/09/09 07:44:26;;;;;;;0.80;0.62;;;;;;;25.78;42.51;100331.91;5323887;26;32816;-81
2023/09/09 07:46:53;;;;;;;0.55;0.55;;;;;;;25.98;42.72;100332.63;5305318;26;32877;-81
2023/09/09 07:49:21;;;;;;;1.17;0.47;;;;;;;25.75;41.86;100337.59;5325082;26;33982;-80
2023/09/09 07:51:49;;;;;;;0.80;0.75;;;;;;;26.22;41.99;100339.28;5308489;26;32374;-81
2023/09/09 07:54:17;;;;;;;0.82;0.50;;;;;;;26.66;40.52;100326.66;5345782;26;32858;-81
2023/09/09 07:56:46;;;;;;;1.60;0.90;;;;;;;26.92;40.48;100333.94;5326857;26;33291;-81
2023/09/09 07:59:14;;;;;;;0.40;0.40;;;;;;;26.75;39.78;100325.69;5326680;26;32751;-80
2023/09/09 08:01:42;;;;;;;0.52;0.50;;;;;;;27.02;38.90;100316.56;5325954;26;32070;-80
2023/09/09 08:04:10;;;;;;;1.70;0.60;;;;;;;27.10;39.43;100323.91;5345145;26;33582;-81
2023/09/09 08:06:38;;;;;;;0.68;0.68;;;;;;;26.88;40.60;100319.03;5308778;26;33364;-80
2023/09/09 08:09:06;;;;;;;0.68;0.65;;;;;;;27.17;39.46;100326.84;5326789;26;33757;-82
2023/09/09 08:11:34;;;;;;;1.80;0.95;;;;;;;26.75;39.73;100325.69;5327084;26;33755;-81
2023/09/09 08:14:02;;;;;;;1.05;0.73;;;;;;;26.87;40.29;100328.13;5308642;26;33141;-81
2023/09/09 08:16:30;;;;;;;1.27;1.17;;;;;;;27.15;39.45;100324.28;5345975;26;33625;-81
2023/09/09 08:19:01;;;;;;;3.42;1.52;;;;;;;27.21;40.14;100323.66;5326959;26;33881;-81
2023/09/09 08:21:28;;;;;;;0.82;0.82;;;;;;;26.90;41.74;100322.41;5345948;26;33439;-81
2023/09/09 08:23:59;;;;;;;0.32;0.32;;;;;;;27.04;39.79;100329.94;5326713;26;33007;-81
2023/09/09 08:26:28;;;;;;;1.17;1.08;;;;;;;27.38;39.74;100327.28;5345721;26;34773;-81
2023/09/09 08:28:55;;;;;;;0.55;0.52;;;;;;;27.42;40.32;100316.97;5327120;26;33892;-80
2023/09/09 08:31:23;;;;;;;3.53;1.70;;;;;;;28.13;37.87;100311.06;5326752;26;34281;-80
2023/09/09 08:33:52;;;;;;;1.25;0.93;;;;;;;28.10;41.15;100310.53;5327615;26;34647;-81
2023/09/09 08:36:19;;;;;;;0.85;0.82;;;;;;;27.62;38.85;100323.81;5326465;26;33688;-81
2023/09/09 08:38:47;;;;;;;0.60;0.60;;;;;;;27.79;37.44;100322.88;5327111;26;32588;-81
2023/09/09 08:41:24;;;;;;;0.85;0.70;;;;;;;27.47;38.33;100320.03;5330658;26;34522;-81
2023/09/09 08:44:03;;;;;;;1.23;0.77;;;;;;;27.62;39.26;100312.94;5345527;26;33435;-81
2023/09/09 08:46:31;;;;;;;3.83;0.62;;;;;;;28.02;37.65;100316.84;5363890;26;32936;-81
2023/09/09 08:49:02;;;;;;;0.98;0.98;;;;;;;27.90;37.12;100324.44;5363942;26;34007;-81
2023/09/09 08:51:34;;;;;;;0.85;0.82;;;;;;;27.73;38.09;100315.41;5363490;26;32294;-81
2023/09/09 08:54:03;;;;;;;1.83;1.30;;;;;;;28.15;37.14;100313.59;5344752;26;34069;-81
2023/09/09 08:56:32;;;;;;;1.55;1.17;;;;;;;28.58;36.30;100318.75;5326756;26;33350;-81
2023/09/09 08:59:00;;;;;;;1.15;1.00;;;;;;;28.26;36.60;100313.28;5343783;26;33385;-81
2023/09/09 09:01:28;;;;;;;2.78;1.75;;;;;;;28.46;37.32;100311.97;5363959;26;34132;-81
2023/09/09 09:03:56;;;;;;;3.83;1.12;;;;;;;28.49;36.59;100311.63;5344947;26;33783;-81
2023/09/09 09:06:24;;;;;;;0.30;0.30;;;;;;;28.90;37.29;100317.00;5345095;26;34654;-81
2023/09/09 09:08:52;;;;;;;0.85;0.68;;;;;;;28.92;36.45;100305.97;5363700;26;34517;-81
2023/09/09 09:11:20;;;;;;;0.75;0.45;;;;;;;29.05;36.57;100311.72;5345064;26;33466;-81
2023/09/09 09:13:50;;;;;;;1.98;0.90;;;;;;;28.66;37.98;100315.16;5326426;26;33798;-80
2023/09/09 09:16:18;;;;;;;4.20;1.20;;;;;;;28.91;35.57;100309.69;5345211;26;33964;-81
2023/09/09 09:18:45;;;;;;;1.08;0.98;;;;;;;28.92;35.42;100306.81;5326960;26;33724;-81
2023/09/09 09:21:13;;;;;;;0.80;0.70;;;;;;;29.20;35.37;100309.13;5345089;26;33397;-82
2023/09/09 09:23:45;;;;;;;2.33;1.02;;;;;;;29.33;35.88;100307.53;5327201;26;32938;-80
2023/09/09 09:26:23;;;;;;;2.10;1.17;;;;;;;29.79;33.89;100298.69;5344859;26;33453;-81
2023/09/09 09:28:51;;;;;;;1.12;1.05;;;;;;;29.82;33.62;100301.91;5363645;26;33721;-81
2023/09/09 09:31:23;;;;;;;0.85;0.85;;;;;;;29.39;35.00;100295.13;5343971;26;34382;-81
2023/09/09 09:33:52;;;;;;;1.87;1.12;;;;;;;29.89;33.80;100299.31;5345613;26;33371;-81
2023/09/09 09:36:21;;;;;;;2.17;0.57;;;;;;;29.99;34.61;100296.34;5345116;26;34414;-81
2023/09/09 09:38:49;;;;;;;0.47;0.47;;;;;;;29.78;33.44;100294.28;5363790;26;34115;-81
2023/09/09 09:41:18;;;;;;;0.20;0.20;;;;;;;29.97;35.38;100301.13;5363352;26;34179;-81
2023/09/09 09:43:47;;;;;;;1.17;1.02;;;;;;;30.37;32.18;100280.91;5363343;26;33927;-81
2023/09/09 09:46:16;;;;;;;1.08;1.02;;;;;;;30.59;32.76;100284.66;5326391;26;32572;-81
2023/09/09 09:48:44;;;;;;;2.05;0.82;;;;;;;30.22;34.13;100286.31;5344442;26;33821;-81
2023/09/09 09:51:12;;;;;;;1.02;0.98;;;;;;;30.34;32.99;100284.87;5363548;26;33483;-81
2023/09/09 09:53:47;;;;;;;0.80;0.77;;;;;;;30.24;34.07;100292.47;5325744;26;33913;-81
2023/09/09 09:56:15;;;;;;;0.70;0.70;;;;;;;29.94;32.76;100296.03;5363607;26;34056;-81
2023/09/09 09:58:45;;;;;;;1.12;0.93;;;;;;;30.08;33.21;100287.09;5345068;26;33350;-81
2023/09/09 10:01:12;;;;;;;0.77;0.77;;;;;;;29.80;32.86;100290.34;5344964;26;33016;-81
2023/09/09 10:03:57;;;;;;;0.88;0.85;;;;;;;29.94;32.48;100287.87;5345026;26;35413;-80
2023/09/09 10:06:26;;;;;;;1.95;1.73;;;;;;;30.44;33.39;100287.34;5363973;26;34845;-81
2023/09/09 10:09:10;;;;;;;3.47;0.90;;;;;;;30.33;31.54;100280.44;5327682;26;33780;-81
2023/09/09 10:11:48;;;;;;;0.50;0.50;;;;;;;30.40;31.05;100282.44;5364704;26;32625;-81
2023/09/09 10:14:17;;;;;;;1.20;1.02;;;;;;;30.68;30.90;100288.16;5327812;26;32758;-81
2023/09/09 10:16:45;;;;;;;0.73;0.62;;;;;;;30.45;29.83;100283.59;5346254;26;33202;-81
2023/09/09 10:19:13;;;;;;;0.77;0.77;;;;;;;30.82;30.11;100284.63;5327574;26;32888;-81
2023/09/09 10:21:42;;;;;;;0.65;0.65;;;;;;;30.76;29.16;100275.28;5346117;26;32632;-81
2023/09/09 10:24:11;;;;;;;1.37;0.82;;;;;;;30.65;32.01;100289.34;5327355;26;32797;-81
2023/09/09 10:26:39;;;;;;;0.68;0.62;;;;;;;30.94;29.76;100282.25;5345922;26;33917;-81
2023/09/09 10:29:08;;;;;;;2.55;1.12;;;;;;;30.89;28.70;100279.25;5364744;26;34636;-81
2023/09/09 10:31:36;;;;;;;0.95;0.82;;;;;;;31.68;29.39;100277.59;5345982;26;33381;-81
2023/09/09 10:34:05;;;;;;;1.00;0.90;;;;;;;31.51;29.01;100278.88;5346631;26;33735;-81
2023/09/09 10:36:36;;;;;;;0.80;0.75;;;;;;;31.54;28.04;100267.56;5327590;26;33619;-81
2023/09/09 10:39:24;;;;;;;2.87;1.55;;;;;;;31.32;28.37;100258.47;5349166;26;32703;-81
2023/09/09 10:41:54;;;;;;;2.00;1.00;;;;;;;31.87;28.20;100263.34;5346191;26;33384;-80
2023/09/09 10:44:22;;;;;;;1.73;0.98;;;;;;;31.74;29.11;100263.19;5327871;26;33613;-81
2023/09/09 10:46:55;;;;;;;0.85;0.85;;;;;;;31.54;28.94;100262.12;5345818;26;34023;-81
2023/09/09 10:49:27;;;;;;;1.30;1.00;;;;;;;31.53;26.70;100257.69;5328172;26;34576;-81
2023/09/09 10:51:55;;;;;;;2.30;0.65;;;;;;;31.73;26.70;100256.03;5309715;26;32897;-81
2023/09/09 10:54:24;;;;;;;1.15;1.05;;;;;;;32.26;26.74;100245.62;5327117;26;32874;-81
2023/09/09 10:56:55;;;;;;;0.55;0.37;;;;;;;32.32;26.14;100247.56;5327197;26;32816;-81
2023/09/09 10:59:29;;;;;;;0.70;0.70;;;;;;;32.17;26.31;100244.09;5308928;26;33112;-81
2023/09/09 11:02:18;;;;;;;1.80;1.05;;;;;;;32.42;26.40;100243.69;5366004;26;33378;-82
2023/09/09 11:04:57;;;;;;;0.80;0.75;;;;;;;32.13;27.37;100235.44;5345576;26;34382;-81
2023/09/09 11:07:40;;;;;;;1.55;0.82;;;;;;;32.25;26.60;100243.13;5327343;26;33198;-81
2023/09/09 11:10:08;;;;;;;0.88;0.77;;;;;;;32.68;25.26;100243.87;5327096;26;33479;-81
2023/09/09 11:12:37;;;;;;;1.70;0.77;;;;;;;32.43;25.65;100242.62;5327727;26;33326;-81
2023/09/09 11:15:09;;;;;;;1.17;0.98;;;;;;;32.53;26.06;100230.34;5345910;26;34314;-82
2023/09/09 11:17:42;;;;;;;0.75;0.75;;;;;;;32.50;26.21;100240.81;5345838;26;34092;-81
2023/09/09 11:20:11;;;;;;;1.12;0.80;;;;;;;33.02;24.62;100234.03;5309415;26;32921;-81
2023/09/09 11:22:42;;;;;;;0.70;0.70;;;;;;;33.26;24.80;100228.03;5327088;26;33304;-81
2023/09/09 11:25:11;;;;;;;9.05;1.40;;;;;;;33.71;24.43;100230.28;5345944;26;33614;-81
2023/09/09 11:27:39;;;;;;;1.55;1.02;;;;;;;33.51;24.14;100227.50;5327690;26;34469;-81
2023/09/09 11:30:08;;;;;;;0.93;0.80;;;;;;;33.88;24.00;100221.47;5309043;26;32821;-81
2023/09/09 11:32:35;;;;;;;1.05;0.77;;;;;;;34.08;23.00;100217.94;5365470;26;33545;-81